Time;durP1;ratioP1;P1;durP2;ratioP2;P2;SDS_P1;SDS_P2;PMS_P1;PMS_P2;Temp;Humidity;BMP_temperature;BMP_pressure;BME280_temperature;BME280_humidity;BME280_pressure;Samples;Min_cycle;Max_cycle;Signal;HPM_P1;HPM_P2
2022/12/20 00:02:04;;;;;;;6.30;3.53;;;9.50;99.90;;;;;;5071205;28;20090;-68
2022/12/20 00:04:30;;;;;;;8.43;3.90;;;9.60;99.90;;;;;;5072129;28;20063;-68
2022/12/20 00:06:55;;;;;;;7.50;3.80;;;9.50;99.90;;;;;;5051950;28;20455;-68
2022/12/20 00:09:21;;;;;;;8.60;4.20;;;9.50;99.90;;;;;;5071098;28;20043;-68
2022/12/20 00:11:47;;;;;;;8.85;4.55;;;9.40;99.90;;;;;;5055670;28;20033;-68
2022/12/20 00:14:12;;;;;;;7.35;3.53;;;9.30;99.90;;;;;;5055831;28;20123;-68
2022/12/20 00:16:38;;;;;;;9.32;4.03;;;9.30;99.90;;;;;;5070844;28;20040;-68
2022/12/20 00:19:05;;;;;;;7.90;4.32;;;9.30;99.90;;;;;;5070777;28;20130;-68
2022/12/20 00:21:33;;;;;;;8.15;4.38;;;9.30;99.90;;;;;;5072430;28;20044;-68
2022/12/20 00:23:59;;;;;;;7.60;4.00;;;9.20;99.90;;;;;;5072010;28;20040;-68
2022/12/20 00:26:27;;;;;;;7.40;3.58;;;9.40;99.90;;;;;;5069011;28;20089;-68
2022/12/20 00:28:53;;;;;;;7.93;3.72;;;9.40;99.90;;;;;;5055250;28;20170;-68
2022/12/20 00:31:21;;;;;;;8.38;3.70;;;9.40;99.90;;;;;;5055502;28;20060;-68
2022/12/20 00:33:49;;;;;;;7.80;3.38;;;9.40;99.90;;;;;;5055522;28;20044;-68
2022/12/20 00:36:16;;;;;;;7.80;4.10;;;9.40;99.90;;;;;;5053429;28;20049;-68
2022/12/20 00:38:45;;;;;;;10.85;4.13;;;9.40;99.90;;;;;;5055237;28;20125;-68
2022/12/20 00:41:14;;;;;;;6.95;3.63;;;9.50;99.90;;;;;;5053788;28;20515;-68
2022/12/20 00:43:40;;;;;;;7.47;3.33;;;9.50;99.90;;;;;;5071945;28;20072;-68
2022/12/20 00:46:07;;;;;;;7.70;3.70;;;9.60;99.90;;;;;;5052616;28;20071;-68
2022/12/20 00:48:33;;;;;;;6.88;3.10;;;9.60;99.90;;;;;;5055088;28;20032;-68
2022/12/20 00:51:00;;;;;;;6.63;3.42;;;9.60;99.90;;;;;;5070363;28;20044;-68
2022/12/20 00:53:26;;;;;;;7.65;3.53;;;9.60;99.90;;;;;;5072170;28;20172;-68
2022/12/20 00:55:52;;;;;;;6.75;3.53;;;9.60;99.90;;;;;;5071765;28;20139;-68
2022/12/20 00:58:17;;;;;;;9.00;4.07;;;9.50;99.90;;;;;;5054218;28;20540;-68
2022/12/20 01:00:43;;;;;;;7.82;3.72;;;9.50;99.90;;;;;;5055211;28;20105;-68
2022/12/20 01:03:09;;;;;;;7.20;3.90;;;9.50;99.90;;;;;;5052425;28;20127;-68
2022/12/20 01:05:35;;;;;;;8.00;3.78;;;9.50;99.90;;;;;;5054916;28;20497;-68
2022/12/20 01:08:00;;;;;;;7.10;3.45;;;9.50;99.90;;;;;;5054987;28;20041;-68
2022/12/20 01:10:26;;;;;;;6.47;3.50;;;9.60;99.90;;;;;;5054857;28;20457;-69
2022/12/20 01:12:52;;;;;;;6.75;3.42;;;9.60;99.90;;;;;;5067816;28;20048;-68
2022/12/20 01:15:18;;;;;;;8.65;3.83;;;9.60;99.90;;;;;;5070462;28;20120;-68
2022/12/20 01:17:44;;;;;;;7.68;3.30;;;9.60;99.90;;;;;;5071500;28;20132;-68
2022/12/20 01:20:10;;;;;;;7.60;3.20;;;9.70;99.90;;;;;;5052634;28;20572;-68
2022/12/20 01:22:35;;;;;;;6.75;3.58;;;9.70;99.90;;;;;;5053345;28;20408;-68
2022/12/20 01:25:01;;;;;;;7.90;3.58;;;9.70;99.90;;;;;;5054892;28;20037;-68
2022/12/20 01:27:27;;;;;;;6.63;2.85;;;9.70;99.90;;;;;;5054697;28;20481;-68
2022/12/20 01:29:53;;;;;;;5.35;2.95;;;9.70;99.90;;;;;;5054688;28;20041;-68
2022/12/20 01:32:19;;;;;;;8.02;3.70;;;9.70;99.90;;;;;;5069159;28;20040;-68
2022/12/20 01:34:45;;;;;;;7.40;3.80;;;9.70;99.90;;;;;;5071451;28;20416;-68
2022/12/20 01:37:10;;;;;;;7.20;3.20;;;9.80;99.90;;;;;;5071635;28;20485;-68
2022/12/20 01:39:36;;;;;;;8.48;3.40;;;9.70;99.90;;;;;;5071233;28;20066;-68
2022/12/20 01:42:02;;;;;;;6.72;3.25;;;9.70;99.90;;;;;;5052945;28;20040;-68
2022/12/20 01:44:27;;;;;;;7.88;3.90;;;9.70;99.90;;;;;;5071509;28;20048;-68
2022/12/20 01:46:54;;;;;;;7.05;4.18;;;9.80;99.90;;;;;;5054642;28;20496;-68
2022/12/20 01:49:34;;;;;;;7.85;3.50;;;9.70;99.90;;;;;;5054496;28;20036;-68
2022/12/20 01:52:10;;;;;;;8.38;3.78;;;9.80;99.90;;;;;;5069956;28;20076;-69
2022/12/20 01:54:45;;;;;;;5.90;3.00;;;9.80;99.90;;;;;;5054852;28;20123;-68
2022/12/20 01:57:42;;;;;;;6.70;3.03;;;9.70;99.90;;;;;;5065842;28;20500;-68
2022/12/20 02:00:08;;;;;;;7.47;3.05;;;9.70;99.90;;;;;;5069644;28;20053;-68
2022/12/20 02:02:35;;;;;;;6.78;2.90;;;9.70;99.90;;;;;;5074941;28;20393;-68
2022/12/20 02:05:01;;;;;;;6.45;2.97;;;9.80;99.90;;;;;;5074458;28;20106;-68
2022/12/20 02:07:31;;;;;;;6.25;2.97;;;9.80;99.90;;;;;;5072083;28;20044;-68
2022/12/20 02:10:00;;;;;;;8.07;3.63;;;9.80;99.90;;;;;;5058072;28;20105;-68
2022/12/20 02:12:38;;;;;;;6.43;3.00;;;9.80;99.90;;;;;;5058077;28;20419;-69
2022/12/20 02:15:16;;;;;;;6.80;2.80;;;9.80;99.90;;;;;;5057800;28;20044;-68
2022/12/20 02:18:00;;;;;;;6.07;2.67;;;9.80;99.90;;;;;;5072398;28;20037;-68
2022/12/20 02:20:45;;;;;;;6.93;2.47;;;9.80;99.90;;;;;;5070075;28;20094;-68
2022/12/20 02:23:26;;;;;;;7.82;3.28;;;9.80;99.90;;;;;;5074595;28;20055;-68
2022/12/20 02:26:08;;;;;;;6.18;2.78;;;9.80;99.90;;;;;;5074315;28;20048;-68
2022/12/20 02:28:52;;;;;;;;;;;9.90;99.90;;;;;;5069561;28;20098;-68
2022/12/20 02:31:25;;;;;;;6.00;2.65;;;9.90;99.90;;;;;;5057352;28;19963;-68
2022/12/20 02:33:53;;;;;;;6.78;3.10;;;9.80;99.90;;;;;;5074213;28;20086;-68
2022/12/20 02:36:18;;;;;;;7.00;3.20;;;9.80;99.90;;;;;;5055670;28;20047;-68
2022/12/20 02:38:44;;;;;;;6.65;3.10;;;9.80;99.90;;;;;;5057330;28;20036;-68
2022/12/20 02:41:22;;;;;;;5.65;2.72;;;9.80;99.90;;;;;;5057434;28;20446;-68
2022/12/20 02:46:39;;;;;;;6.20;2.70;;;9.90;99.90;;;;;;5072404;28;20385;-68
2022/12/20 02:49:12;;;;;;;5.70;3.10;;;9.80;99.90;;;;;;5073763;28;20036;-68
2022/12/20 02:51:41;;;;;;;6.18;2.85;;;9.90;99.90;;;;;;5074024;28;20048;-68
2022/12/20 02:54:07;;;;;;;5.78;3.25;;;9.90;99.90;;;;;;5073810;28;20119;-68
2022/12/20 02:56:38;;;;;;;5.70;3.00;;;9.90;99.90;;;;;;5068785;28;20606;-68
2022/12/20 02:59:13;;;;;;;5.22;2.65;;;9.80;99.90;;;;;;5055797;28;20036;-68
2022/12/20 03:01:46;;;;;;;7.90;3.15;;;9.90;99.90;;;;;;5072538;28;20434;-67
2022/12/20 03:04:13;;;;;;;7.30;3.00;;;9.90;99.90;;;;;;5056740;28;20163;-68
2022/12/20 03:06:54;;;;;;;9.00;2.88;;;9.90;99.90;;;;;;5072286;28;20480;-67
2022/12/20 03:09:19;;;;;;;6.45;3.13;;;9.90;99.90;;;;;;5054550;28;20510;-68
2022/12/20 03:11:45;;;;;;;5.88;2.75;;;9.90;99.90;;;;;;5074388;28;20040;-68
2022/12/20 03:14:10;;;;;;;7.32;3.40;;;9.90;99.90;;;;;;5072446;28;20037;-68
2022/12/20 03:16:36;;;;;;;6.07;3.25;;;9.90;99.90;;;;;;5056630;28;20048;-68
2022/12/20 03:19:01;;;;;;;7.57;3.25;;;9.80;99.90;;;;;;5073240;28;20548;-67
2022/12/20 03:21:27;;;;;;;7.00;3.38;;;9.80;99.90;;;;;;5070978;28;20386;-68
2022/12/20 03:23:53;;;;;;;6.47;2.70;;;9.80;99.90;;;;;;5073133;28;20044;-68
2022/12/20 03:26:18;;;;;;;7.97;3.50;;;9.80;99.90;;;;;;5070477;28;20037;-67
2022/12/20 03:28:44;;;;;;;7.35;3.60;;;9.80;99.90;;;;;;5054762;28;20094;-68
2022/12/20 03:31:09;;;;;;;6.15;2.88;;;9.70;99.90;;;;;;5073236;28;20039;-68
2022/12/20 03:33:35;;;;;;;6.93;3.38;;;9.80;99.90;;;;;;5058672;28;20033;-68
2022/12/20 03:36:00;;;;;;;8.10;3.35;;;9.70;99.90;;;;;;5048967;28;20068;-67
2022/12/20 03:38:26;;;;;;;8.30;3.65;;;9.70;99.90;;;;;;5034025;28;20550;-68
2022/12/20 03:40:51;;;;;;;7.22;3.05;;;9.60;99.90;;;;;;5053445;28;20033;-68
2022/12/20 03:43:17;;;;;;;6.38;3.20;;;9.60;99.90;;;;;;5062366;28;20090;-68
2022/12/20 03:45:42;;;;;;;5.90;3.10;;;9.60;99.90;;;;;;5044040;28;20044;-68
2022/12/20 03:48:08;;;;;;;5.80;3.50;;;9.70;99.90;;;;;;5048036;28;20048;-68
2022/12/20 03:50:35;;;;;;;5.50;2.97;;;9.70;99.90;;;;;;5056115;28;20039;-68
2022/12/20 03:53:01;;;;;;;6.60;3.13;;;9.70;99.90;;;;;;5048209;28;20029;-68
2022/12/20 03:55:26;;;;;;;8.55;3.20;;;9.70;99.90;;;;;;5051383;28;20044;-68
2022/12/20 03:57:52;;;;;;;6.55;3.00;;;9.70;99.90;;;;;;5054522;28;20048;-68
2022/12/20 04:00:19;;;;;;;6.50;3.00;;;9.70;99.90;;;;;;5067454;28;20047;-68
2022/12/20 04:02:45;;;;;;;8.15;3.40;;;9.70;99.90;;;;;;5070781;28;20055;-68
2022/12/20 04:05:10;;;;;;;6.30;2.83;;;9.70;99.90;;;;;;5049404;28;20052;-68
2022/12/20 04:07:36;;;;;;;7.28;3.22;;;9.70;99.90;;;;;;5035709;28;20056;-68
2022/12/20 04:10:03;;;;;;;6.47;3.10;;;9.70;99.90;;;;;;5052269;28;20074;-68
2022/12/20 04:12:28;;;;;;;6.72;2.80;;;9.80;99.90;;;;;;5047396;28;20040;-68
2022/12/20 04:14:54;;;;;;;8.05;3.10;;;9.80;99.90;;;;;;5053371;28;20041;-68
2022/12/20 04:17:19;;;;;;;5.80;3.00;;;9.80;99.90;;;;;;5062385;28;20413;-68
2022/12/20 04:19:45;;;;;;;6.32;3.10;;;9.80;99.90;;;;;;5069120;28;20066;-68
2022/12/20 04:22:11;;;;;;;7.68;2.92;;;9.80;99.90;;;;;;5049456;28;20044;-68
2022/12/20 04:24:36;;;;;;;7.43;3.35;;;9.80;99.90;;;;;;5051328;28;20429;-68
2022/12/20 04:27:02;;;;;;;7.53;3.60;;;9.80;99.90;;;;;;5050954;28;20064;-68
2022/12/20 04:29:28;;;;;;;6.40;2.80;;;9.80;99.90;;;;;;5071035;28;20044;-68
2022/12/20 04:31:53;;;;;;;6.25;2.83;;;9.80;99.90;;;;;;5055206;28;20044;-68
2022/12/20 04:34:19;;;;;;;5.57;3.03;;;9.80;99.90;;;;;;5038082;28;20116;-68
2022/12/20 04:36:44;;;;;;;7.47;3.50;;;9.80;99.90;;;;;;5045886;28;20552;-68
2022/12/20 04:39:10;;;;;;;7.88;3.50;;;9.80;99.90;;;;;;5051836;28;20047;-68
2022/12/20 04:41:36;;;;;;;6.82;3.33;;;9.80;99.90;;;;;;5052106;28;20051;-68
2022/12/20 04:44:01;;;;;;;6.82;3.28;;;9.80;99.90;;;;;;5051835;28;20091;-68
2022/12/20 04:46:27;;;;;;;7.97;3.15;;;9.80;99.90;;;;;;5051770;28;20075;-68
2022/12/20 04:48:52;;;;;;;7.63;3.75;;;9.80;99.90;;;;;;5059236;28;20028;-68
2022/12/20 04:51:18;;;;;;;7.80;3.40;;;9.80;99.90;;;;;;5046023;28;20493;-68
2022/12/20 04:53:47;;;;;;;7.15;3.42;;;9.90;99.90;;;;;;5062756;28;20037;-68
2022/12/20 04:56:24;;;;;;;6.88;3.50;;;9.90;99.90;;;;;;5059010;28;20041;-68
2022/12/20 04:58:51;;;;;;;7.10;3.35;;;9.90;99.90;;;;;;5022082;28;20073;-68
2022/12/20 05:01:17;;;;;;;7.25;2.95;;;9.90;99.90;;;;;;5065307;28;20049;-68
2022/12/20 05:03:44;;;;;;;6.35;3.38;;;9.90;99.90;;;;;;5048768;28;20033;-68
2022/12/20 05:06:10;;;;;;;7.38;3.30;;;9.90;99.90;;;;;;5023809;28;20037;-68
2022/12/20 05:08:36;;;;;;;6.82;3.47;;;9.90;99.90;;;;;;5059631;28;20145;-68
2022/12/20 05:11:03;;;;;;;6.55;3.22;;;10.00;99.90;;;;;;5070547;28;20036;-68
2022/12/20 05:13:29;;;;;;;7.35;3.53;;;10.00;99.90;;;;;;5053429;28;20485;-68
2022/12/20 05:15:56;;;;;;;7.18;2.97;;;10.00;99.90;;;;;;5070470;28;20047;-68
2022/12/20 05:18:22;;;;;;;6.65;3.10;;;10.10;99.90;;;;;;5054872;28;20037;-68
2022/12/20 05:26:15;;;;;;;6.20;3.50;;;10.10;99.90;;;;;;5053746;28;20496;-68
2022/12/20 05:26:18;;;;;;;6.55;2.72;;;10.10;99.90;;;;;;5067942;28;20044;-68
2022/12/20 05:28:44;;;;;;;6.68;3.08;;;10.20;99.90;;;;;;5069223;28;20033;-68
2022/12/20 05:31:10;;;;;;;6.20;3.05;;;10.10;99.90;;;;;;5053614;28;20064;-68
2022/12/20 05:33:35;;;;;;;5.63;2.85;;;10.20;99.90;;;;;;5067747;28;20025;-68
2022/12/20 05:36:01;;;;;;;7.05;3.22;;;10.20;99.90;;;;;;5066219;28;20444;-68
2022/12/20 05:38:27;;;;;;;6.15;2.90;;;10.20;99.90;;;;;;5055074;28;20041;-68
2022/12/20 05:40:52;;;;;;;6.72;3.17;;;10.20;99.90;;;;;;5038372;28;20492;-68
2022/12/20 05:43:19;;;;;;;7.93;3.38;;;10.20;99.90;;;;;;5044098;28;20056;-68
2022/12/20 05:45:50;;;;;;;8.02;3.17;;;10.20;99.90;;;;;;5069897;28;20044;-68
2022/12/20 05:48:17;;;;;;;7.63;3.55;;;10.20;99.90;;;;;;5052540;28;20058;-68
2022/12/20 05:50:43;;;;;;;5.30;2.78;;;10.20;99.90;;;;;;5027367;28;20032;-68
2022/12/20 05:53:13;;;;;;;6.38;2.83;;;10.20;99.90;;;;;;5054801;28;20120;-68
2022/12/20 05:55:48;;;;;;;7.32;3.03;;;10.30;99.90;;;;;;5038084;28;20033;-68
2022/12/20 05:58:14;;;;;;;6.68;3.28;;;10.40;99.90;;;;;;5056523;28;20052;-69
2022/12/20 06:00:41;;;;;;;6.75;2.45;;;10.30;99.90;;;;;;5073098;28;20090;-68
2022/12/20 06:03:08;;;;;;;5.85;2.72;;;10.30;99.90;;;;;;5065433;28;20492;-68
2022/12/20 06:05:35;;;;;;;6.93;2.83;;;10.30;99.90;;;;;;5069709;28;20084;-69
2022/12/20 06:08:02;;;;;;;5.28;2.83;;;10.30;99.90;;;;;;5050220;28;20052;-69
2022/12/20 06:10:28;;;;;;;10.05;3.08;;;10.30;99.90;;;;;;5072445;28;20040;-69
2022/12/20 06:12:53;;;;;;;6.65;3.05;;;10.30;99.90;;;;;;5056115;28;20527;-69
2022/12/20 06:15:19;;;;;;;5.38;2.70;;;10.20;99.90;;;;;;5053876;28;20071;-68
2022/12/20 06:17:45;;;;;;;5.70;2.83;;;10.30;99.90;;;;;;5072342;28;20040;-69
2022/12/20 06:20:11;;;;;;;6.55;2.75;;;10.40;99.90;;;;;;5073530;28;20036;-69
2022/12/20 06:22:37;;;;;;;6.63;2.60;;;10.40;99.90;;;;;;5074382;28;20094;-69
2022/12/20 06:25:04;;;;;;;9.23;3.28;;;10.40;99.90;;;;;;5071901;28;20051;-68
2022/12/20 06:27:30;;;;;;;5.45;2.78;;;10.40;99.90;;;;;;5072198;28;20060;-69
2022/12/20 06:29:55;;;;;;;6.30;2.80;;;10.40;99.90;;;;;;5056413;28;20033;-68
2022/12/20 06:32:21;;;;;;;6.15;2.83;;;10.40;99.90;;;;;;5055370;28;20430;-69
2022/12/20 06:34:46;;;;;;;5.65;2.70;;;10.40;99.90;;;;;;5067195;28;20115;-68
2022/12/20 06:37:12;;;;;;;5.68;2.95;;;10.40;99.90;;;;;;5032071;28;20066;-69
2022/12/20 06:39:38;;;;;;;7.18;2.85;;;10.40;99.90;;;;;;5069089;28;20075;-69
2022/12/20 06:42:03;;;;;;;5.93;2.60;;;10.50;99.90;;;;;;5056153;28;20068;-69
2022/12/20 06:44:29;;;;;;;7.28;2.63;;;10.50;99.90;;;;;;5070287;28;20041;-68
2022/12/20 06:46:55;;;;;;;5.82;2.58;;;10.50;99.90;;;;;;5054792;28;20072;-69
2022/12/20 06:49:21;;;;;;;6.00;3.00;;;10.50;99.90;;;;;;5055664;28;20029;-68
2022/12/20 06:51:47;;;;;;;6.72;3.00;;;10.60;99.90;;;;;;5056384;28;20095;-68
2022/12/20 06:54:13;;;;;;;7.65;3.25;;;10.60;99.90;;;;;;5069855;28;20036;-68
2022/12/20 06:56:38;;;;;;;8.07;3.38;;;10.50;99.90;;;;;;5066920;28;20037;-68
2022/12/20 06:59:04;;;;;;;7.38;3.28;;;10.50;99.90;;;;;;5067584;28;20163;-68
2022/12/20 07:01:30;;;;;;;7.85;3.25;;;10.50;99.90;;;;;;5042866;28;20045;-68
2022/12/20 07:03:55;;;;;;;6.53;3.50;;;10.40;99.90;;;;;;5055867;28;20039;-69
2022/12/20 07:06:21;;;;;;;6.88;3.40;;;10.40;99.90;;;;;;5049160;28;20048;-66
2022/12/20 07:08:47;;;;;;;7.00;3.35;;;10.40;99.90;;;;;;5055352;28;20033;-67
2022/12/20 07:11:12;;;;;;;7.13;3.22;;;10.40;99.90;;;;;;5071433;28;20068;-66
2022/12/20 07:13:38;;;;;;;6.55;3.38;;;10.40;99.90;;;;;;5055511;28;20040;-66
2022/12/20 07:16:04;;;;;;;7.65;3.45;;;10.40;99.90;;;;;;5052514;28;20486;-66
2022/12/20 07:18:30;;;;;;;8.48;3.75;;;10.30;99.90;;;;;;5073271;28;20123;-66
2022/12/20 07:21:04;;;;;;;8.32;4.30;;;10.30;99.90;;;;;;5069798;28;20120;-66
2022/12/20 07:23:30;;;;;;;7.28;3.83;;;10.30;99.90;;;;;;5073138;28;20080;-66
2022/12/20 07:25:57;;;;;;;9.48;4.28;;;10.30;99.90;;;;;;5063090;28;20044;-66
2022/12/20 07:28:24;;;;;;;8.93;3.75;;;10.40;99.90;;;;;;5049409;28;20397;-66
2022/12/20 07:30:50;;;;;;;7.68;3.75;;;10.40;99.90;;;;;;5055262;28;20033;-66
2022/12/20 07:33:16;;;;;;;7.13;3.85;;;10.40;99.90;;;;;;5052899;28;20043;-66
2022/12/20 07:35:42;;;;;;;7.93;3.78;;;10.40;99.90;;;;;;5027489;28;20486;-66
2022/12/20 07:38:08;;;;;;;8.80;3.97;;;10.50;99.90;;;;;;5052991;28;20049;-66
2022/12/20 07:40:34;;;;;;;8.50;4.10;;;10.50;99.90;;;;;;5066345;28;20089;-66
2022/12/20 07:42:59;;;;;;;7.88;3.55;;;10.40;99.90;;;;;;5062842;28;20036;-66
2022/12/20 07:45:25;;;;;;;5.80;3.40;;;10.40;99.90;;;;;;5054108;28;20127;-66
2022/12/20 07:47:50;;;;;;;7.80;3.60;;;10.50;99.90;;;;;;5054890;28;20044;-66
2022/12/20 07:50:16;;;;;;;7.60;4.22;;;10.50;99.90;;;;;;5071448;28;20037;-67
2022/12/20 07:52:44;;;;;;;7.13;3.75;;;10.50;99.90;;;;;;5068487;28;20036;-66
2022/12/20 07:55:11;;;;;;;8.70;3.70;;;10.50;99.90;;;;;;5038148;28;20056;-67
2022/12/20 07:57:39;;;;;;;7.18;3.42;;;10.50;99.90;;;;;;5040408;28;20055;-66
2022/12/20 08:00:06;;;;;;;5.90;3.45;;;10.50;99.90;;;;;;5053206;28;20186;-66
2022/12/20 08:02:39;;;;;;;9.70;4.13;;;10.50;99.90;;;;;;5057786;28;20048;-66
2022/12/20 08:05:07;;;;;;;7.75;3.50;;;10.50;99.90;;;;;;5063670;28;20056;-66
2022/12/20 08:07:35;;;;;;;6.68;3.65;;;10.60;99.90;;;;;;5035761;28;20044;-67
2022/12/20 08:10:00;;;;;;;7.75;3.70;;;10.50;99.90;;;;;;5068049;28;20044;-67
2022/12/20 08:12:28;;;;;;;8.15;3.63;;;10.60;99.90;;;;;;5065357;28;20039;-67
2022/12/20 08:14:55;;;;;;;7.18;3.63;;;10.50;99.90;;;;;;5043473;28;20503;-67
2022/12/20 08:17:21;;;;;;;6.70;3.40;;;10.50;99.90;;;;;;5068222;28;20075;-67
2022/12/20 08:19:47;;;;;;;6.22;3.63;;;10.50;99.90;;;;;;5070881;28;20047;-66
2022/12/20 08:22:13;;;;;;;6.20;3.17;;;10.50;99.90;;;;;;5053833;28;20045;-66
2022/12/20 08:24:39;;;;;;;7.18;3.10;;;10.60;99.90;;;;;;5045292;28;20038;-67
2022/12/20 08:27:05;;;;;;;6.57;3.38;;;10.60;99.90;;;;;;5032031;28;20063;-66
2022/12/20 08:29:30;;;;;;;6.45;3.10;;;10.70;99.90;;;;;;5063537;28;20045;-67
2022/12/20 08:31:56;;;;;;;7.15;2.85;;;10.60;99.90;;;;;;5057966;28;20043;-67
2022/12/20 08:34:21;;;;;;;5.75;2.97;;;10.60;99.90;;;;;;5059183;28;20041;-67
2022/12/20 08:36:47;;;;;;;5.75;2.90;;;10.60;99.90;;;;;;5070604;28;20047;-67
2022/12/20 08:39:13;;;;;;;6.22;2.80;;;10.60;99.90;;;;;;5071519;28;20473;-67
2022/12/20 08:41:38;;;;;;;6.20;2.83;;;10.60;99.90;;;;;;5072183;28;20536;-67
2022/12/20 08:44:05;;;;;;;6.57;3.03;;;10.70;99.90;;;;;;5034828;28;20516;-66
2022/12/20 08:46:30;;;;;;;6.53;2.90;;;10.70;99.90;;;;;;5049362;28;20116;-67
2022/12/20 08:48:56;;;;;;;5.93;2.75;;;10.70;99.90;;;;;;5055925;28;20119;-67
2022/12/20 08:51:21;;;;;;;6.38;3.00;;;10.70;99.90;;;;;;5038366;28;20045;-67
2022/12/20 08:53:47;;;;;;;5.78;2.88;;;10.70;99.90;;;;;;5034353;28;20037;-67
2022/12/20 08:56:14;;;;;;;5.88;2.80;;;10.70;99.90;;;;;;5068522;28;20064;-67
2022/12/20 08:58:41;;;;;;;7.88;2.75;;;10.70;99.90;;;;;;5053227;28;20070;-67
2022/12/20 09:01:10;;;;;;;6.18;2.45;;;10.70;99.90;;;;;;5070189;28;20431;-66
2022/12/20 09:03:36;;;;;;;7.05;2.47;;;10.70;99.90;;;;;;5071666;28;20033;-67
2022/12/20 09:06:11;;;;;;;7.72;2.67;;;10.80;99.90;;;;;;5035905;28;20052;-67
2022/12/20 09:08:38;;;;;;;6.35;2.70;;;10.70;99.90;;;;;;5057324;28;20033;-67
2022/12/20 09:11:16;;;;;;;6.85;2.80;;;10.80;99.90;;;;;;5075919;28;20040;-67
2022/12/20 09:13:44;;;;;;;6.53;2.80;;;10.70;99.90;;;;;;5074278;28;20117;-67
2022/12/20 09:16:11;;;;;;;6.72;2.80;;;10.70;99.90;;;;;;5056914;28;20040;-67
2022/12/20 09:18:37;;;;;;;6.78;2.92;;;10.70;99.90;;;;;;5055254;28;20111;-67
2022/12/20 09:21:05;;;;;;;5.47;2.53;;;10.70;99.90;;;;;;5055302;28;20567;-67
2022/12/20 09:23:32;;;;;;;6.93;2.80;;;10.70;99.90;;;;;;5048986;28;20048;-67
2022/12/20 09:26:05;;;;;;;8.13;2.78;;;10.70;99.90;;;;;;5073194;28;20044;-67
2022/12/20 09:28:32;;;;;;;8.38;2.65;;;10.70;99.90;;;;;;5057012;28;20129;-67
2022/12/20 09:30:59;;;;;;;5.15;2.75;;;10.80;99.90;;;;;;5053889;28;20037;-67
2022/12/20 09:33:25;;;;;;;5.35;2.50;;;10.70;99.90;;;;;;5075264;28;20041;-67
2022/12/20 09:35:50;;;;;;;5.68;2.65;;;10.80;99.90;;;;;;5055365;28;20047;-67
2022/12/20 09:38:16;;;;;;;7.20;2.38;;;10.80;99.90;;;;;;5058383;28;20127;-67
2022/12/20 09:40:48;;;;;;;6.40;2.33;;;10.90;99.90;;;;;;5051065;28;20082;-66
2022/12/20 09:43:15;;;;;;;6.18;2.67;;;10.90;99.90;;;;;;5073446;28;20040;-67
2022/12/20 09:45:41;;;;;;;5.20;2.42;;;10.90;99.90;;;;;;5071805;28;20040;-66
2022/12/20 09:48:17;;;;;;;6.05;3.10;;;10.90;99.90;;;;;;5066607;28;20044;-67
2022/12/20 09:51:06;;;;;;;8.10;2.90;;;10.90;99.90;;;;;;5054744;28;20037;-67
2022/12/20 09:53:34;;;;;;;4.05;2.10;;;10.90;99.90;;;;;;5033730;28;20045;-67
2022/12/20 09:56:21;;;;;;;5.30;2.35;;;11.00;99.90;;;;;;5052353;28;20120;-67
2022/12/20 09:58:58;;;;;;;3.55;2.05;;;11.00;99.90;;;;;;5053857;28;20037;-67
2022/12/20 10:01:26;;;;;;;5.47;2.13;;;11.00;99.90;;;;;;5056536;28;20052;-67
2022/12/20 10:03:53;;;;;;;5.22;2.22;;;11.00;99.90;;;;;;5041657;28;20045;-67
2022/12/20 10:06:34;;;;;;;4.45;2.00;;;11.00;99.90;;;;;;5054425;28;20048;-66
2022/12/20 10:09:02;;;;;;;5.65;2.47;;;11.00;99.90;;;;;;5055106;28;20469;-67
2022/12/20 10:11:44;;;;;;;4.72;2.53;;;11.00;99.90;;;;;;5037551;28;20083;-66
2022/12/20 10:14:43;;;;;;;4.25;2.50;;;11.00;99.90;;;;;;5054217;28;20367;-66
2022/12/20 10:17:12;;;;;;;6.15;3.00;;;11.00;99.90;;;;;;5037823;28;20049;-67
2022/12/20 10:20:14;;;;;;;5.70;2.75;;;11.00;99.90;;;;;;5053583;28;20044;-66
2022/12/20 10:23:06;;;;;;;5.82;2.47;;;11.00;99.90;;;;;;5054032;28;20052;-67
2022/12/20 10:25:33;;;;;;;5.78;2.63;;;10.90;99.90;;;;;;5053990;28;20051;-66
2022/12/20 10:28:11;;;;;;;5.57;2.83;;;11.00;99.90;;;;;;5054216;28;20104;-67
2022/12/20 10:30:36;;;;;;;9.55;2.63;;;11.00;99.90;;;;;;5053705;28;20505;-67
2022/12/20 10:33:02;;;;;;;6.88;2.72;;;10.90;99.90;;;;;;5054472;28;20068;-66
2022/12/20 10:35:39;;;;;;;7.88;2.70;;;10.90;99.90;;;;;;5053583;28;20037;-66
2022/12/20 10:38:11;;;;;;;7.30;3.10;;;10.80;99.90;;;;;;5053721;28;20045;-66
2022/12/20 10:40:41;;;;;;;;;;;10.90;99.90;;;;;;5037295;28;20537;-67
2022/12/20 10:43:17;;;;;;;5.45;2.38;;;10.80;99.90;;;;;;5037441;28;19991;-67
2022/12/20 10:45:54;;;;;;;8.60;2.90;;;10.80;99.90;;;;;;5036782;28;20086;-66
2022/12/20 10:48:33;;;;;;;6.65;2.92;;;10.90;99.90;;;;;;5053287;28;20493;-67
2022/12/20 10:51:11;;;;;;;6.68;2.58;;;10.90;99.90;;;;;;5034475;28;20076;-66
2022/12/20 10:53:57;;;;;;;6.75;2.70;;;10.90;99.90;;;;;;5037197;28;20116;-66
2022/12/20 10:56:35;;;;;;;8.48;2.70;;;10.90;99.90;;;;;;5053351;28;20103;-66
2022/12/20 10:59:16;;;;;;;6.72;2.80;;;10.90;99.90;;;;;;5053329;28;20072;-66
2022/12/20 11:01:44;;;;;;;5.50;2.50;;;10.90;99.90;;;;;;5053238;28;20038;-67
2022/12/20 11:04:26;;;;;;;4.68;2.10;;;10.90;99.90;;;;;;5051497;28;20378;-68
2022/12/20 11:06:52;;;;;;;6.63;2.70;;;10.90;99.90;;;;;;5035160;28;20404;-68
2022/12/20 11:09:18;;;;;;;5.60;2.50;;;10.90;99.90;;;;;;5028075;28;20120;-68
2022/12/20 11:12:15;;;;;;;4.20;2.25;;;10.90;99.90;;;;;;5053627;28;20120;-68
2022/12/20 11:14:43;;;;;;;5.53;2.42;;;11.00;99.90;;;;;;5033364;28;20029;-68
2022/12/20 11:17:31;;;;;;;8.57;2.78;;;11.00;99.90;;;;;;5037663;28;20171;-68
2022/12/20 11:20:03;;;;;;;6.70;2.38;;;11.00;99.90;;;;;;5033283;28;20124;-68
2022/12/20 11:22:47;;;;;;;6.75;2.55;;;11.00;99.90;;;;;;5065585;28;20032;-68
2022/12/20 11:25:31;;;;;;;6.50;2.50;;;11.00;99.90;;;;;;5050845;28;20084;-68
2022/12/20 11:28:22;;;;;;;7.35;2.72;;;11.00;99.90;;;;;;5071511;28;20512;-68
2022/12/20 11:31:16;;;;;;;3.85;1.95;;;11.00;99.90;;;;;;5053662;28;20033;-68
2022/12/20 11:34:02;;;;;;;7.43;2.40;;;11.10;99.90;;;;;;5070415;28;20043;-68
2022/12/20 11:36:57;;;;;;;5.65;2.60;;;11.10;99.90;;;;;;5065126;28;20075;-68
2022/12/20 11:39:42;;;;;;;4.10;2.00;;;11.10;99.90;;;;;;5049133;28;20502;-68
2022/12/20 11:42:19;;;;;;;7.93;2.72;;;11.10;99.90;;;;;;5035911;28;20041;-68
2022/12/20 11:45:03;;;;;;;5.05;2.13;;;11.10;99.90;;;;;;5042004;28;20059;-68
2022/12/20 11:47:48;;;;;;;4.22;2.03;;;11.10;99.90;;;;;;5048756;28;20033;-68
2022/12/20 11:50:31;;;;;;;5.55;2.53;;;11.20;99.90;;;;;;5063307;28;20087;-68
2022/12/20 11:53:03;;;;;;;5.88;2.38;;;11.10;99.90;;;;;;5049301;28;20036;-68
2022/12/20 11:55:35;;;;;;;3.17;1.63;;;11.10;99.90;;;;;;5060992;28;20051;-68
2022/12/20 11:58:26;;;;;;;3.10;1.87;;;11.10;99.90;;;;;;5054429;28;20040;-68
2022/12/20 12:01:02;;;;;;;4.57;2.10;;;11.20;99.90;;;;;;5007768;28;20309;-68
2022/12/20 12:03:33;;;;;;;5.57;2.20;;;11.20;99.90;;;;;;5041065;28;20064;-68
2022/12/20 12:06:10;;;;;;;4.53;2.20;;;11.20;99.90;;;;;;5042873;28;20569;-68
2022/12/20 12:09:02;;;;;;;4.93;2.30;;;11.20;99.90;;;;;;5035360;28;20374;-68
2022/12/20 12:11:31;;;;;;;3.70;2.15;;;11.20;99.90;;;;;;5005105;28;20118;-68
2022/12/20 12:14:00;;;;;;;4.55;2.30;;;11.10;99.90;;;;;;5034813;28;20113;-68
2022/12/20 12:16:29;;;;;;;6.07;2.60;;;11.10;99.90;;;;;;5051631;28;20032;-68
2022/12/20 12:18:58;;;;;;;4.78;2.35;;;11.20;99.90;;;;;;5034838;28;20037;-68
2022/12/20 12:21:27;;;;;;;4.35;2.30;;;11.10;99.90;;;;;;5066545;28;20101;-68
2022/12/20 12:23:53;;;;;;;5.82;2.80;;;11.10;99.90;;;;;;5054305;28;20078;-68
2022/12/20 12:26:27;;;;;;;4.30;2.15;;;11.10;99.90;;;;;;5069913;28;20419;-68
2022/12/20 12:28:56;;;;;;;5.93;2.30;;;11.20;99.90;;;;;;5030955;28;20060;-68
2022/12/20 12:31:28;;;;;;;5.50;2.60;;;11.10;99.90;;;;;;5035004;28;20032;-68
2022/12/20 12:34:32;;;;;;;5.90;2.42;;;11.10;99.90;;;;;;5051710;28;20059;-67
2022/12/20 12:37:19;;;;;;;4.03;2.30;;;11.10;99.90;;;;;;5049623;28;20037;-68
2022/12/20 12:39:57;;;;;;;6.13;2.40;;;11.10;99.90;;;;;;5053690;28;20045;-68
2022/12/20 12:42:37;;;;;;;4.03;1.90;;;11.10;99.90;;;;;;5072188;28;20045;-68
2022/12/20 12:45:06;;;;;;;5.60;2.45;;;11.10;99.90;;;;;;5069176;28;20041;-68
2022/12/20 12:47:44;;;;;;;4.10;2.25;;;11.10;99.90;;;;;;5059957;28;20051;-68
2022/12/20 12:50:38;;;;;;;4.97;2.33;;;11.00;99.90;;;;;;5024334;28;20052;-68
2022/12/20 12:53:15;;;;;;;4.72;2.35;;;11.00;99.90;;;;;;5062519;28;20119;-68
2022/12/20 12:55:49;;;;;;;4.00;2.20;;;11.00;99.90;;;;;;5050197;28;20493;-68
2022/12/20 12:58:24;;;;;;;4.05;2.00;;;11.00;99.90;;;;;;5053383;28;20036;-68
2022/12/20 13:00:54;;;;;;;5.38;2.35;;;11.00;99.90;;;;;;5053438;28;20076;-68
2022/12/20 13:03:38;;;;;;;4.70;2.28;;;11.00;99.90;;;;;;5040702;28;20037;-68
2022/12/20 13:06:22;;;;;;;6.22;2.30;;;11.00;99.90;;;;;;5042993;28;20506;-68
2022/12/20 13:09:03;;;;;;;5.32;2.63;;;11.10;99.90;;;;;;5049228;28;20053;-68
2022/12/20 13:11:31;;;;;;;5.55;2.80;;;11.10;99.90;;;;;;5051058;28;20068;-68